Time;durP1;ratioP1;P1;durP2;ratioP2;P2;SDS_P1;SDS_P2;PMS_P1;PMS_P2;Temp;Humidity;BMP_temperature;BMP_pressure;BME280_temperature;BME280_humidity;BME280_pressure;Samples;Min_cycle;Max_cycle;Signal;HPM_P1;HPM_P2
2022/01/21 00:00:18;;;;;;;38.73;5.00;;;2.30;37.50;;;;;;5054263;28;20467;-63
2022/01/21 00:02:44;;;;;;;40.00;4.30;;;1.90;37.30;;;;;;5064182;28;20477;-64
2022/01/21 00:05:12;;;;;;;38.77;4.97;;;1.90;37.10;;;;;;5047934;28;20442;-63
2022/01/21 00:07:38;;;;;;;39.23;4.73;;;2.00;37.10;;;;;;5033907;28;20480;-64
2022/01/21 00:10:07;;;;;;;40.30;4.90;;;2.00;37.10;;;;;;5037163;28;20466;-64
2022/01/21 00:12:36;;;;;;;43.53;4.90;;;2.00;37.10;;;;;;5038935;28;20478;-64
2022/01/21 00:15:04;;;;;;;39.10;4.53;;;2.00;37.10;;;;;;5044940;28;20506;-64
2022/01/21 00:17:30;;;;;;;40.67;6.60;;;2.10;37.30;;;;;;5040665;28;20463;-64
2022/01/21 00:30:52;;;;;;;37.30;4.47;;;2.00;37.50;;;;;;5048711;28;20468;-64
2022/01/21 00:33:19;;;;;;;39.20;4.60;;;2.00;37.60;;;;;;5049562;28;20478;-63
2022/01/21 00:35:46;;;;;;;40.03;5.00;;;2.00;37.60;;;;;;5046529;28;20454;-64
2022/01/21 00:38:14;;;;;;;37.07;4.30;;;2.00;37.50;;;;;;5041828;28;20463;-64
2022/01/21 00:40:41;;;;;;;40.90;5.23;;;2.00;37.50;;;;;;5046298;28;21039;-65
2022/01/21 00:43:18;;;;;;;41.00;4.97;;;2.00;37.60;;;;;;5048565;28;20470;-63
2022/01/21 00:45:45;;;;;;;42.70;4.87;;;2.00;37.50;;;;;;5052287;28;20513;-64
2022/01/21 00:48:12;;;;;;;39.80;5.50;;;2.00;37.50;;;;;;5032038;28;20461;-63
2022/01/21 00:50:39;;;;;;;40.40;7.10;;;2.00;37.60;;;;;;5030042;28;20461;-64
2022/01/21 00:53:05;;;;;;;37.10;5.10;;;2.00;37.70;;;;;;5056011;28;20481;-64
2022/01/21 00:55:32;;;;;;;37.50;4.37;;;2.10;37.80;;;;;;5069004;28;20539;-64
2022/01/21 00:57:59;;;;;;;40.70;5.00;;;2.20;40.40;;;;;;5036467;28;20455;-64
2022/01/21 01:00:27;;;;;;;42.00;6.07;;;2.10;41.30;;;;;;5033429;28;20835;-64
2022/01/21 01:02:54;;;;;;;39.67;6.30;;;2.10;42.10;;;;;;5045866;28;20478;-64
2022/01/21 01:05:21;;;;;;;43.63;5.43;;;2.10;42.30;;;;;;5059142;28;20987;-63
2022/01/21 01:07:48;;;;;;;41.00;4.80;;;2.00;42.20;;;;;;5044630;28;20466;-64
2022/01/21 01:10:22;;;;;;;40.03;5.50;;;2.00;42.10;;;;;;5028510;28;20961;-64
2022/01/21 01:12:58;;;;;;;39.50;6.13;;;2.00;42.60;;;;;;5039469;28;20478;-63
2022/01/21 01:20:56;;;;;;;39.97;6.00;;;2.00;41.70;;;;;;5029706;28;20461;-64
2022/01/21 01:23:27;;;;;;;39.70;5.53;;;2.00;41.60;;;;;;5035466;28;21086;-64
2022/01/21 01:28:40;;;;;;;40.80;5.33;;;2.00;43.30;;;;;;5037705;28;20450;-64
2022/01/21 01:31:08;;;;;;;39.43;5.50;;;2.00;43.10;;;;;;5038052;28;20474;-63
2022/01/21 01:33:38;;;;;;;39.77;5.50;;;2.00;43.20;;;;;;5046208;28;20485;-63
2022/01/21 01:36:07;;;;;;;38.80;5.20;;;2.00;43.00;;;;;;5052512;28;20948;-63
2022/01/21 01:41:18;;;;;;;39.50;5.00;;;2.00;42.60;;;;;;5032765;28;20453;-64
2022/01/21 01:49:34;;;;;;;40.77;5.30;;;1.90;41.70;;;;;;5039176;28;20596;-63
2022/01/21 01:52:03;;;;;;;39.10;6.33;;;1.90;41.60;;;;;;5042721;28;20478;-64
2022/01/21 01:54:31;;;;;;;44.70;5.57;;;1.80;42.00;;;;;;5050029;28;20488;-64
2022/01/21 01:56:58;;;;;;;41.50;5.20;;;1.80;41.50;;;;;;5057610;28;20461;-64
2022/01/21 01:59:26;;;;;;;37.57;5.13;;;1.80;41.60;;;;;;5036286;28;20459;-64
2022/01/21 02:01:56;;;;;;;38.07;5.10;;;1.70;41.30;;;;;;5032299;28;20478;-64
2022/01/21 02:04:24;;;;;;;43.63;5.93;;;1.70;41.30;;;;;;5043603;28;20450;-63
2022/01/21 02:06:51;;;;;;;39.90;5.33;;;1.70;41.40;;;;;;5052169;28;20460;-63
2022/01/21 02:09:18;;;;;;;43.03;6.10;;;1.70;41.30;;;;;;5047737;28;20473;-63
2022/01/21 02:11:46;;;;;;;40.30;6.30;;;1.70;41.30;;;;;;5050975;28;21003;-64
2022/01/21 02:14:19;;;;;;;39.80;5.00;;;1.70;41.10;;;;;;5045728;28;20561;-63
2022/01/21 02:17:11;;;;;;;41.27;5.27;;;1.70;41.00;;;;;;5052077;28;20458;-64
2022/01/21 02:22:31;;;;;;;42.73;5.53;;;1.60;40.60;;;;;;5046353;28;20492;-64
2022/01/21 02:25:11;;;;;;;38.23;5.00;;;1.60;40.70;;;;;;5051497;28;21020;-64
2022/01/21 02:27:37;;;;;;;38.90;5.73;;;1.60;40.70;;;;;;5045272;28;20481;-63
2022/01/21 02:30:07;;;;;;;46.27;5.70;;;1.60;40.60;;;;;;5030439;28;20462;-63
2022/01/21 02:32:34;;;;;;;38.97;5.37;;;1.60;40.60;;;;;;5027922;28;20628;-64
2022/01/21 02:35:01;;;;;;;37.63;5.20;;;1.60;40.50;;;;;;5043097;28;20475;-63
2022/01/21 02:37:29;;;;;;;38.80;5.70;;;1.60;40.50;;;;;;5067858;28;20844;-64
2022/01/21 02:39:55;;;;;;;38.70;7.03;;;1.70;40.40;;;;;;5038514;28;20459;-64
2022/01/21 02:42:22;;;;;;;40.30;5.47;;;1.70;40.30;;;;;;5042959;28;20470;-63
2022/01/21 02:44:49;;;;;;;37.17;4.57;;;1.70;40.10;;;;;;5037293;28;20553;-64
2022/01/21 02:47:16;;;;;;;38.63;5.43;;;1.70;40.00;;;;;;5060097;28;20454;-64
2022/01/21 02:49:42;;;;;;;41.20;4.90;;;1.70;39.80;;;;;;5045543;28;20455;-64
2022/01/21 02:52:09;;;;;;;39.57;5.97;;;1.70;39.70;;;;;;5049497;28;20489;-64
2022/01/21 02:54:37;;;;;;;42.20;5.40;;;1.70;39.60;;;;;;5046027;28;20535;-63
2022/01/21 02:57:06;;;;;;;38.87;5.50;;;1.70;39.60;;;;;;5054489;28;20451;-64
2022/01/21 02:59:33;;;;;;;39.23;5.27;;;1.70;39.40;;;;;;5040561;28;20461;-64
2022/01/21 03:02:00;;;;;;;45.30;7.30;;;1.70;39.50;;;;;;5041551;28;20485;-63
2022/01/21 03:04:34;;;;;;;42.83;5.57;;;1.70;39.50;;;;;;5039475;28;20518;-63
2022/01/21 03:07:01;;;;;;;42.70;5.30;;;1.70;39.30;;;;;;5054845;28;20482;-64
2022/01/21 03:09:28;;;;;;;36.07;5.10;;;1.70;39.30;;;;;;5042305;28;20459;-64
2022/01/21 03:11:57;;;;;;;39.73;5.00;;;1.70;39.30;;;;;;5050114;28;20484;-64
2022/01/21 03:14:24;;;;;;;39.87;5.23;;;1.70;39.20;;;;;;5035089;28;20481;-62
2022/01/21 03:16:50;;;;;;;38.47;6.00;;;1.70;39.10;;;;;;5052232;28;20462;-62
2022/01/21 03:19:17;;;;;;;41.40;5.80;;;1.70;39.10;;;;;;5042045;28;20459;-62
2022/01/21 03:21:44;;;;;;;37.70;5.60;;;1.70;39.10;;;;;;5042261;28;20487;-64
2022/01/21 03:24:10;;;;;;;38.80;5.50;;;1.70;39.00;;;;;;5042651;28;20452;-64
2022/01/21 03:26:37;;;;;;;40.10;6.57;;;1.70;39.00;;;;;;5055930;28;20493;-62
2022/01/21 03:29:06;;;;;;;38.23;5.57;;;1.70;39.10;;;;;;5042085;28;20463;-62
2022/01/21 03:31:33;;;;;;;40.97;5.30;;;1.70;39.00;;;;;;5049113;28;20474;-62
2022/01/21 03:34:00;;;;;;;38.40;5.10;;;1.70;39.00;;;;;;5049232;28;20457;-63
2022/01/21 03:36:27;;;;;;;42.40;4.93;;;1.70;39.10;;;;;;5050456;28;20477;-64
2022/01/21 03:38:55;;;;;;;39.50;5.83;;;1.70;39.10;;;;;;5050619;28;20447;-64
2022/01/21 03:41:22;;;;;;;42.00;5.00;;;1.60;39.00;;;;;;5041083;28;20478;-62
2022/01/21 03:43:49;;;;;;;41.17;6.20;;;1.60;39.10;;;;;;5046010;28;20451;-62
2022/01/21 03:46:18;;;;;;;40.57;5.83;;;1.60;39.20;;;;;;5038448;28;20839;-63
2022/01/21 03:48:47;;;;;;;38.30;5.93;;;1.60;39.20;;;;;;5057995;28;20465;-62
2022/01/21 03:51:14;;;;;;;39.40;5.77;;;1.70;39.40;;;;;;5041956;28;20458;-62
2022/01/21 03:53:41;;;;;;;38.20;6.07;;;1.70;39.40;;;;;;5048776;28;20457;-65
2022/01/21 03:56:08;;;;;;;44.20;5.63;;;1.70;39.40;;;;;;5040493;28;20485;-64
2022/01/21 03:58:35;;;;;;;39.57;5.87;;;1.70;39.50;;;;;;5059615;28;20458;-62
2022/01/21 04:01:02;;;;;;;41.57;5.00;;;1.80;39.50;;;;;;5035621;28;20588;-64
2022/01/21 04:03:30;;;;;;;38.43;5.17;;;1.80;39.40;;;;;;5030199;28;20490;-64
2022/01/21 04:05:57;;;;;;;46.67;6.80;;;1.80;39.50;;;;;;5038217;28;20454;-64
2022/01/21 04:08:24;;;;;;;37.30;5.07;;;1.80;39.50;;;;;;5056479;28;20473;-64
2022/01/21 04:10:51;;;;;;;39.40;6.50;;;1.80;39.60;;;;;;5039120;28;20467;-62
2022/01/21 04:13:20;;;;;;;43.33;6.43;;;1.90;39.60;;;;;;5049284;28;20478;-65
2022/01/21 04:15:49;;;;;;;42.73;6.73;;;1.90;39.60;;;;;;5042663;28;20486;-64
2022/01/21 04:18:16;;;;;;;39.97;6.30;;;1.90;39.80;;;;;;5051630;28;20469;-62
2022/01/21 04:20:47;;;;;;;40.97;6.00;;;1.90;39.80;;;;;;5046429;28;20455;-62
2022/01/21 04:23:14;;;;;;;41.70;5.63;;;1.90;39.80;;;;;;5036885;28;20475;-61
2022/01/21 04:25:41;;;;;;;43.37;6.87;;;1.90;39.80;;;;;;5030256;28;20457;-61
2022/01/21 04:28:09;;;;;;;51.27;8.03;;;1.90;39.80;;;;;;5047360;28;20836;-62
2022/01/21 04:30:36;;;;;;;44.80;7.17;;;1.90;39.80;;;;;;5055842;28;20464;-64
2022/01/21 04:33:03;;;;;;;41.43;6.43;;;1.90;39.80;;;;;;5052798;28;20474;-62
2022/01/21 04:35:31;;;;;;;48.00;8.03;;;1.80;39.60;;;;;;5037765;28;20482;-62
2022/01/21 04:38:02;;;;;;;40.40;6.40;;;1.80;39.60;;;;;;5033086;28;20967;-64
2022/01/21 04:40:33;;;;;;;46.60;8.73;;;1.80;39.70;;;;;;5049938;28;20485;-63
2022/01/21 04:48:30;;;;;;;45.53;7.63;;;1.70;39.60;;;;;;5043545;28;20503;-64
2022/01/21 04:51:00;;;;;;;43.63;7.40;;;1.80;39.60;;;;;;5058757;28;20464;-64
2022/01/21 04:53:32;;;;;;;46.73;6.47;;;1.70;39.70;;;;;;5057277;22;20506;-63
2022/01/21 04:55:58;;;;;;;47.10;6.40;;;1.60;39.60;;;;;;5027216;28;20570;-64
2022/01/21 04:58:25;;;;;;;42.20;6.83;;;1.60;39.60;;;;;;5028227;28;20497;-63
2022/01/21 05:00:52;;;;;;;39.37;6.53;;;1.60;39.70;;;;;;5025852;28;20483;-62
2022/01/21 05:03:18;;;;;;;42.03;5.70;;;1.50;40.20;;;;;;5044888;28;20473;-64
2022/01/21 05:05:45;;;;;;;38.10;5.20;;;1.60;39.30;;;;;;5039191;28;20461;-64
2022/01/21 05:08:23;;;;;;;41.27;6.43;;;1.60;39.00;;;;;;5038289;28;20960;-63
2022/01/21 05:10:51;;;;;;;40.90;5.70;;;1.50;39.00;;;;;;5044266;28;20854;-65
2022/01/21 05:13:22;;;;;;;46.27;5.30;;;1.50;39.00;;;;;;5029173;28;20481;-64
2022/01/21 05:16:02;;;;;;;42.17;4.43;;;1.50;38.90;;;;;;5029046;28;20553;-63
2022/01/21 05:18:29;;;;;;;38.73;4.57;;;1.50;38.80;;;;;;5036622;28;20450;-64
2022/01/21 05:20:56;;;;;;;45.83;5.43;;;1.50;38.80;;;;;;5042127;28;20544;-63
2022/01/21 05:23:24;;;;;;;42.17;4.90;;;1.50;38.70;;;;;;5039891;28;20493;-66
2022/01/21 05:25:52;;;;;;;42.53;5.77;;;1.50;38.70;;;;;;5043992;28;20451;-64
2022/01/21 05:28:19;;;;;;;42.10;5.60;;;1.50;38.70;;;;;;5041481;28;20465;-65
2022/01/21 05:30:46;;;;;;;49.60;6.80;;;1.50;38.70;;;;;;5038472;28;20849;-63
2022/01/21 05:33:13;;;;;;;37.93;5.80;;;1.60;38.60;;;;;;5041033;28;20493;-65
2022/01/21 05:35:39;;;;;;;39.30;5.83;;;1.60;38.60;;;;;;5044206;28;20501;-62
2022/01/21 05:38:06;;;;;;;50.63;6.17;;;1.60;38.50;;;;;;5058453;28;20524;-65
2022/01/21 05:40:33;;;;;;;38.90;5.70;;;1.60;38.50;;;;;;5043866;28;20470;-66
2022/01/21 05:43:01;;;;;;;42.57;6.13;;;1.50;38.50;;;;;;5032665;28;20475;-65
2022/01/21 05:48:12;;;;;;;42.20;6.10;;;1.50;38.60;;;;;;5029978;28;20471;-64
2022/01/21 05:50:39;;;;;;;44.63;6.53;;;1.50;38.60;;;;;;5039249;28;20453;-65
2022/01/21 05:53:09;;;;;;;41.37;5.67;;;1.40;38.60;;;;;;5037525;28;20517;-63
2022/01/21 05:55:40;;;;;;;44.53;7.77;;;1.40;38.70;;;;;;5038552;28;21059;-62
2022/01/21 05:58:09;;;;;;;40.83;5.97;;;1.30;38.70;;;;;;5036476;28;21008;-63
2022/01/21 06:00:37;;;;;;;43.00;5.83;;;1.30;38.80;;;;;;5030608;28;20477;-64
2022/01/21 06:03:04;;;;;;;40.87;5.30;;;1.30;39.10;;;;;;5038184;28;20875;-64
2022/01/21 06:05:33;;;;;;;40.43;5.60;;;1.30;39.10;;;;;;5032665;28;20830;-65
2022/01/21 06:08:00;;;;;;;47.00;6.97;;;1.30;39.10;;;;;;5033377;28;20456;-64
2022/01/21 06:10:27;;;;;;;44.83;6.23;;;1.30;39.00;;;;;;5032920;28;20462;-64
2022/01/21 06:12:55;;;;;;;40.17;5.43;;;1.30;38.90;;;;;;5041322;28;20491;-65
2022/01/21 06:15:23;;;;;;;43.17;7.13;;;1.20;38.70;;;;;;5038443;28;20471;-65
2022/01/21 06:17:50;;;;;;;50.07;6.07;;;1.20;38.60;;;;;;5039282;28;20454;-64
2022/01/21 06:20:19;;;;;;;46.97;7.10;;;1.10;38.60;;;;;;5041007;28;20978;-64
2022/01/21 06:22:46;;;;;;;45.57;6.73;;;1.10;38.60;;;;;;5041532;28;20485;-62
2022/01/21 06:25:13;;;;;;;42.43;7.20;;;1.00;38.50;;;;;;5043200;28;20537;-64
2022/01/21 06:27:40;;;;;;;45.17;7.00;;;1.00;38.50;;;;;;5039113;28;20462;-66
2022/01/21 06:30:08;;;;;;;45.00;6.83;;;1.00;38.40;;;;;;5042242;28;20457;-67
2022/01/21 06:32:36;;;;;;;41.80;7.00;;;0.90;38.40;;;;;;5019020;28;20482;-66
2022/01/21 06:35:04;;;;;;;48.73;9.10;;;0.90;38.50;;;;;;5024007;28;20472;-64
2022/01/21 06:37:31;;;;;;;53.43;9.10;;;0.90;38.90;;;;;;5031491;28;20550;-66
2022/01/21 06:39:58;;;;;;;46.73;8.77;;;1.00;39.10;;;;;;5031747;28;21241;-66
2022/01/21 06:42:27;;;;;;;42.70;8.17;;;1.00;39.20;;;;;;5022111;28;20479;-64
2022/01/21 06:44:53;;;;;;;43.57;6.90;;;1.10;39.50;;;;;;5025515;28;20961;-64
2022/01/21 06:47:20;;;;;;;44.07;7.83;;;1.10;39.40;;;;;;5012278;28;20455;-63
2022/01/21 06:49:48;;;;;;;43.13;7.33;;;1.10;39.40;;;;;;5023927;28;20458;-65
2022/01/21 06:52:15;;;;;;;50.73;7.13;;;1.10;39.40;;;;;;5015339;28;20997;-65
2022/01/21 06:54:42;;;;;;;44.73;7.33;;;1.00;39.30;;;;;;5018531;28;21142;-65
2022/01/21 06:57:09;;;;;;;43.70;5.87;;;1.00;39.20;;;;;;5027264;28;21023;-64
2022/01/21 06:59:35;;;;;;;46.23;5.83;;;0.90;39.20;;;;;;5023536;28;21023;-66
2022/01/21 07:02:02;;;;;;;43.50;6.90;;;0.90;39.80;;;;;;5045430;28;20489;-67
2022/01/21 07:04:29;;;;;;;65.23;7.80;;;0.80;39.10;;;;;;5043949;28;20470;-64
2022/01/21 07:06:58;;;;;;;42.73;6.53;;;0.80;39.00;;;;;;5036474;28;20451;-66
2022/01/21 07:09:25;;;;;;;44.70;6.40;;;0.80;38.80;;;;;;5031536;28;20516;-63
2022/01/21 07:11:52;;;;;;;42.30;7.00;;;0.70;38.80;;;;;;5033302;28;20562;-66
2022/01/21 07:14:19;;;;;;;45.60;7.00;;;0.70;38.90;;;;;;5034540;28;20462;-62
2022/01/21 07:16:46;;;;;;;42.60;6.43;;;0.70;38.80;;;;;;5042647;28;21025;-63
2022/01/21 07:19:13;;;;;;;49.20;7.80;;;0.70;38.70;;;;;;5045670;28;20549;-64
2022/01/21 07:21:40;;;;;;;46.90;8.10;;;0.70;38.70;;;;;;5048571;28;20498;-65
2022/01/21 07:24:09;;;;;;;51.63;7.47;;;0.70;38.70;;;;;;5051052;28;20460;-64
2022/01/21 07:26:35;;;;;;;39.77;6.23;;;0.70;38.60;;;;;;5044890;28;20463;-63
2022/01/21 07:29:02;;;;;;;50.43;6.57;;;0.70;38.60;;;;;;5047412;28;20466;-64
2022/01/21 07:31:29;;;;;;;47.80;7.30;;;0.70;38.40;;;;;;5049654;28;20474;-64
2022/01/21 07:33:56;;;;;;;44.30;7.80;;;0.70;38.40;;;;;;5047924;28;20458;-64
2022/01/21 07:36:22;;;;;;;48.57;8.13;;;0.70;38.50;;;;;;5037308;28;21029;-64
2022/01/21 07:38:49;;;;;;;49.60;8.87;;;0.70;38.50;;;;;;5045377;28;20481;-65
2022/01/21 07:41:17;;;;;;;47.73;8.80;;;0.80;38.50;;;;;;5045852;28;21083;-64
2022/01/21 07:43:44;;;;;;;47.40;9.37;;;0.80;38.30;;;;;;5049782;28;20654;-65
2022/01/21 07:46:11;;;;;;;45.30;9.87;;;0.80;38.20;;;;;;5049202;28;20454;-64
2022/01/21 07:48:38;;;;;;;46.67;9.80;;;0.90;38.20;;;;;;5038698;28;20463;-63
2022/01/21 07:51:04;;;;;;;51.50;9.70;;;0.90;38.10;;;;;;5030069;28;20484;-65
2022/01/21 07:53:31;;;;;;;52.37;9.90;;;1.00;37.90;;;;;;5029906;28;21237;-67
2022/01/21 07:55:58;;;;;;;50.30;9.40;;;1.30;37.70;;;;;;5039813;28;21038;-69
2022/01/21 07:58:26;;;;;;;48.60;11.00;;;1.50;37.20;;;;;;5033341;28;20454;-66
2022/01/21 08:00:53;;;;;;;42.57;8.33;;;2.00;36.60;;;;;;5035524;28;20469;-65
2022/01/21 08:03:20;;;;;;;48.27;9.10;;;2.60;35.50;;;;;;5043051;28;20489;-66
2022/01/21 08:05:47;;;;;;;46.73;7.63;;;3.30;33.90;;;;;;5034466;28;20541;-70
2022/01/21 08:08:14;;;;;;;45.50;7.43;;;4.20;31.60;;;;;;5047412;28;20500;-67
2022/01/21 08:10:41;;;;;;;45.00;7.90;;;4.90;28.80;;;;;;5039454;28;20463;-63
2022/01/21 08:13:07;;;;;;;51.60;11.00;;;5.40;27.30;;;;;;5046948;28;21005;-62
2022/01/21 08:15:35;;;;;;;47.70;10.27;;;5.90;26.40;;;;;;5047595;28;20454;-64
2022/01/21 08:18:02;;;;;;;48.80;10.20;;;6.00;24.20;;;;;;5033712;28;20478;-64
2022/01/21 08:20:31;;;;;;;48.80;11.83;;;5.60;24.60;;;;;;5029927;28;20466;-64
2022/01/21 08:22:58;;;;;;;48.97;13.93;;;5.70;25.30;;;;;;5030387;28;20479;-63
2022/01/21 08:25:25;;;;;;;57.47;17.20;;;5.90;25.10;;;;;;5033997;28;20471;-61
2022/01/21 08:27:51;;;;;;;64.10;15.77;;;6.20;23.90;;;;;;5037134;28;20544;-62
2022/01/21 08:30:18;;;;;;;45.00;10.63;;;6.60;24.00;;;;;;5043128;28;20968;-64
2022/01/21 08:32:46;;;;;;;45.90;9.27;;;7.10;22.50;;;;;;5031571;28;20485;-63
2022/01/21 08:35:13;;;;;;;44.70;7.77;;;7.80;21.20;;;;;;5039743;28;20462;-64
2022/01/21 08:37:40;;;;;;;40.10;6.97;;;8.50;19.80;;;;;;5048504;28;20886;-63
2022/01/21 08:40:08;;;;;;;38.93;5.43;;;9.10;18.60;;;;;;5035766;28;20453;-64
2022/01/21 08:42:35;;;;;;;34.93;4.87;;;9.60;16.80;;;;;;5035794;28;20474;-63
2022/01/21 08:45:02;;;;;;;37.33;4.50;;;9.60;16.30;;;;;;5038610;28;20463;-64
2022/01/21 08:47:29;;;;;;;37.67;5.63;;;9.40;16.40;;;;;;5033011;28;20450;-65
2022/01/21 08:50:00;;;;;;;39.77;5.23;;;9.10;16.50;;;;;;5032948;28;20477;-65
2022/01/21 08:52:29;;;;;;;41.17;6.73;;;8.90;16.80;;;;;;5043468;28;20566;-64
2022/01/21 08:54:56;;;;;;;42.30;6.00;;;8.80;17.20;;;;;;5032652;28;20542;-65
2022/01/21 08:57:23;;;;;;;40.47;5.80;;;9.00;19.00;;;;;;5038233;28;20485;-64
2022/01/21 08:59:49;;;;;;;37.17;6.03;;;9.30;19.10;;;;;;5037857;28;20466;-63
2022/01/21 09:02:18;;;;;;;38.67;6.20;;;9.30;17.80;;;;;;5038263;28;21050;-64
2022/01/21 09:04:46;;;;;;;39.00;6.43;;;9.10;17.00;;;;;;5030688;28;20467;-66
2022/01/21 09:07:14;;;;;;;36.87;5.93;;;8.80;16.40;;;;;;5030579;28;20892;-65
2022/01/21 09:09:40;;;;;;;34.87;4.83;;;8.60;17.20;;;;;;5032721;28;20467;-63
2022/01/21 09:12:08;;;;;;;36.57;3.93;;;8.40;17.70;;;;;;5038244;28;20487;-62
2022/01/21 09:14:35;;;;;;;38.97;4.23;;;8.30;16.90;;;;;;5045698;28;21091;-63
2022/01/21 09:17:02;;;;;;;38.43;4.10;;;8.30;16.50;;;;;;5037301;28;20479;-63
2022/01/21 09:19:29;;;;;;;41.40;4.73;;;8.20;15.90;;;;;;5040193;28;20461;-65
2022/01/21 09:21:56;;;;;;;38.20;3.90;;;8.10;16.90;;;;;;5033875;28;20474;-64
2022/01/21 09:24:24;;;;;;;41.77;5.10;;;8.50;17.10;;;;;;5042678;28;20461;-64
2022/01/21 09:26:51;;;;;;;37.57;4.77;;;9.10;16.70;;;;;;5039522;28;20462;-64
2022/01/21 09:29:18;;;;;;;40.77;4.20;;;10.00;15.30;;;;;;5031351;28;20470;-64
2022/01/21 09:31:45;;;;;;;38.87;4.30;;;11.20;13.90;;;;;;5031302;28;20536;-65
2022/01/21 09:34:12;;;;;;;35.33;4.43;;;12.40;12.20;;;;;;5042344;28;20465;-63
2022/01/21 09:36:39;;;;;;;35.20;4.97;;;13.70;9.00;;;;;;5045242;28;20477;-63
2022/01/21 09:39:06;;;;;;;35.97;6.30;;;14.80;8.30;;;;;;5035674;28;20454;-64
2022/01/21 09:41:35;;;;;;;36.90;5.07;;;15.90;6.90;;;;;;5043604;28;20469;-63
2022/01/21 09:44:04;;;;;;;39.40;4.43;;;16.90;5.30;;;;;;5048112;28;20462;-65
2022/01/21 09:46:35;;;;;;;38.30;3.80;;;17.90;4.10;;;;;;5039533;28;20461;-67
2022/01/21 09:49:19;;;;;;;34.03;3.90;;;18.80;2.40;;;;;;5039209;28;20471;-66
2022/01/21 09:51:46;;;;;;;32.70;3.47;;;19.70;1.00;;;;;;5034609;28;20487;-65
2022/01/21 09:54:13;;;;;;;32.70;2.97;;;20.70;1.00;;;;;;5040883;28;20979;-63
2022/01/21 09:56:45;;;;;;;35.33;3.30;;;21.80;1.00;;;;;;5041218;28;20527;-64
2022/01/21 09:59:12;;;;;;;31.60;2.93;;;22.90;1.00;;;;;;5046775;28;20842;-64
2022/01/21 10:01:40;;;;;;;32.20;3.43;;;23.30;1.00;;;;;;5042620;28;20513;-64
2022/01/21 10:04:07;;;;;;;33.03;3.40;;;23.80;1.00;;;;;;5049178;28;20477;-63
2022/01/21 10:06:36;;;;;;;33.17;3.40;;;23.60;1.00;;;;;;5039122;28;20463;-64
2022/01/21 10:09:04;;;;;;;36.30;4.20;;;23.00;1.00;;;;;;5050227;28;20458;-64
2022/01/21 10:11:31;;;;;;;33.47;3.40;;;22.90;1.00;;;;;;5044591;28;20960;-63
2022/01/21 10:13:59;;;;;;;33.03;4.23;;;21.80;1.00;;;;;;5052968;28;20952;-63
2022/01/21 10:16:25;;;;;;;32.80;3.77;;;20.40;1.00;;;;;;5052198;28;20476;-64
2022/01/21 10:19:04;;;;;;;32.97;3.40;;;18.90;1.00;;;;;;5052180;28;20473;-65
2022/01/21 10:21:32;;;;;;;41.30;3.17;;;17.50;1.00;;;;;;5039362;28;21052;-64
2022/01/21 10:24:07;;;;;;;32.00;3.30;;;16.30;1.70;;;;;;5043300;28;20454;-63
2022/01/21 10:26:33;;;;;;;34.07;3.17;;;15.30;3.30;;;;;;5039582;28;20966;-67
2022/01/21 10:29:02;;;;;;;33.87;3.90;;;14.70;4.40;;;;;;5041991;28;21035;-68
2022/01/21 10:31:30;;;;;;;34.80;3.23;;;14.60;5.60;;;;;;5042731;28;20474;-67
2022/01/21 10:34:02;;;;;;;34.70;3.47;;;14.20;5.50;;;;;;5037598;28;20815;-70
2022/01/21 10:36:33;;;;;;;35.13;4.10;;;15.10;5.70;;;;;;5039540;28;20481;-69
2022/01/21 10:39:09;;;;;;;37.80;3.97;;;17.80;4.10;;;;;;5032878;28;20466;-68
2022/01/21 10:41:39;;;;;;;35.83;4.23;;;18.70;1.10;;;;;;5041738;28;20466;-67
2022/01/21 10:44:10;;;;;;;33.90;3.40;;;19.20;1.40;;;;;;5036582;28;20466;-66
2022/01/21 10:46:38;;;;;;;34.37;4.43;;;19.50;1.00;;;;;;5046628;28;20482;-64
2022/01/21 10:49:06;;;;;;;37.23;4.07;;;18.50;1.00;;;;;;5037802;28;20454;-65
2022/01/21 10:51:35;;;;;;;34.47;5.33;;;17.60;1.30;;;;;;5041252;28;20474;-66
2022/01/21 10:54:15;;;;;;;43.73;5.00;;;17.00;1.30;;;;;;5053767;23;20491;-61
2022/01/21 10:57:01;;;;;;;33.33;3.63;;;16.50;2.60;;;;;;5032531;28;20490;-63
2022/01/21 10:59:45;;;;;;;36.10;4.43;;;16.70;2.50;;;;;;5032252;28;20459;-63
2022/01/21 11:02:13;;;;;;;33.57;4.63;;;17.70;2.40;;;;;;5029531;28;20475;-63
2022/01/21 11:04:41;;;;;;;32.30;4.13;;;17.80;1.00;;;;;;5012787;28;20598;-62
2022/01/21 11:07:11;;;;;;;34.07;4.33;;;17.50;1.70;;;;;;5020236;28;21028;-64
2022/01/21 11:09:38;;;;;;;34.77;4.50;;;17.80;1.40;;;;;;5012465;28;20458;-64
2022/01/21 11:12:10;;;;;;;34.10;4.53;;;18.80;1.50;;;;;;5028793;28;20463;-64
2022/01/21 11:14:54;;;;;;;33.60;4.40;;;20.10;1.00;;;;;;5026104;28;20458;-63
2022/01/21 11:17:21;;;;;;;35.93;4.60;;;19.40;1.00;;;;;;5032730;28;20493;-63
2022/01/21 11:20:01;;;;;;;37.73;4.23;;;19.80;1.00;;;;;;5032650;28;20478;-63
2022/01/21 11:22:29;;;;;;;40.80;4.00;;;20.30;1.00;;;;;;5025782;28;20570;-63
2022/01/21 11:24:59;;;;;;;34.30;4.13;;;20.90;1.00;;;;;;5027788;28;20463;-63
2022/01/21 11:27:26;;;;;;;31.33;3.40;;;21.40;1.00;;;;;;5030943;28;20455;-63
2022/01/21 11:29:55;;;;;;;38.40;3.37;;;22.10;1.00;;;;;;5031969;28;21028;-63
2022/01/21 11:32:22;;;;;;;38.63;5.00;;;22.40;1.00;;;;;;5026103;28;20483;-62
2022/01/21 11:34:49;;;;;;;34.07;3.97;;;22.60;1.00;;;;;;5032000;28;20463;-62
2022/01/21 11:37:15;;;;;;;30.77;3.40;;;22.20;1.00;;;;;;5026055;28;20558;-62
2022/01/21 11:39:43;;;;;;;33.73;3.43;;;22.20;1.00;;;;;;5031822;28;20960;-61
2022/01/21 11:42:10;;;;;;;32.90;3.80;;;22.10;1.00;;;;;;5028413;28;20467;-63
2022/01/21 11:44:41;;;;;;;35.27;3.30;;;21.90;1.00;;;;;;5027065;28;20471;-63
2022/01/21 11:47:28;;;;;;;30.47;3.70;;;21.50;1.00;;;;;;5031030;28;20473;-63
2022/01/21 11:49:58;;;;;;;31.10;3.17;;;21.30;1.00;;;;;;5031706;28;20462;-63
2022/01/21 11:52:25;;;;;;;32.83;3.30;;;21.10;1.00;;;;;;5027001;28;20868;-65
2022/01/21 11:54:52;;;;;;;32.73;3.90;;;20.80;1.00;;;;;;5030816;28;20983;-62
2022/01/21 11:57:28;;;;;;;30.70;3.10;;;20.40;1.00;;;;;;5030847;28;20479;-61
2022/01/21 12:00:04;;;;;;;30.70;3.10;;;19.90;1.00;;;;;;5031715;28;20466;-62
2022/01/21 12:02:35;;;;;;;33.47;3.70;;;19.60;1.00;;;;;;5028892;28;20505;-63
2022/01/21 12:05:04;;;;;;;30.83;3.27;;;19.30;1.00;;;;;;5015814;28;20487;-62
2022/01/21 12:07:55;;;;;;;31.37;3.43;;;18.80;1.00;;;;;;5026270;28;20491;-63
2022/01/21 12:10:34;;;;;;;32.33;3.40;;;18.20;1.00;;;;;;5027052;28;20458;-63
2022/01/21 12:13:11;;;;;;;32.20;3.83;;;18.00;1.00;;;;;;5018232;28;20481;-63
2022/01/21 12:16:19;;;;;;;30.97;3.80;;;17.80;1.00;;;;;;5020705;28;21253;-62
2022/01/21 12:19:24;;;;;;;32.33;3.43;;;17.20;1.00;;;;;;5022200;28;20540;-63
2022/01/21 12:21:51;;;;;;;33.20;3.23;;;16.30;1.00;;;;;;5002932;28;20467;-62
2022/01/21 12:24:47;;;;;;;32.73;3.53;;;15.70;1.00;;;;;;5026842;28;20477;-61
2022/01/21 12:27:14;;;;;;;34.03;3.30;;;15.30;1.00;;;;;;5017674;28;20835;-61
2022/01/21 12:29:42;;;;;;;36.20;3.40;;;14.80;2.10;;;;;;5024361;28;20468;-62
2022/01/21 12:32:16;;;;;;;34.40;3.63;;;14.50;2.50;;;;;;5022090;28;20479;-62
2022/01/21 12:35:08;;;;;;;32.67;3.07;;;14.10;2.50;;;;;;5028887;28;20506;-62
2022/01/21 12:37:52;;;;;;;33.10;3.30;;;13.60;3.30;;;;;;5014756;28;20475;-60
2022/01/21 12:40:34;;;;;;;34.90;3.53;;;13.20;4.30;;;;;;5021259;28;20464;-62
2022/01/21 12:43:00;;;;;;;35.47;4.20;;;12.70;4.90;;;;;;5029862;28;20493;-62
2022/01/21 12:45:27;;;;;;;32.73;3.23;;;12.40;5.30;;;;;;5015389;28;20459;-63
2022/01/21 12:47:55;;;;;;;35.13;3.23;;;12.10;5.70;;;;;;5021467;28;20471;-62
2022/01/21 12:50:33;;;;;;;37.70;3.97;;;11.80;6.30;;;;;;5022344;28;20471;-63
2022/01/21 12:53:17;;;;;;;34.27;3.50;;;11.50;6.60;;;;;;5021295;28;20544;-64
2022/01/21 12:55:59;;;;;;;34.90;3.60;;;11.30;7.30;;;;;;5015873;28;20461;-60
2022/01/21 12:58:30;;;;;;;33.80;3.00;;;11.30;7.90;;;;;;5016565;28;20481;-61
2022/01/21 13:00:57;;;;;;;34.77;3.27;;;11.40;8.10;;;;;;5018426;28;20494;-61
2022/01/21 13:03:28;;;;;;;35.83;4.20;;;11.40;7.50;;;;;;5025251;28;20515;-66
2022/01/21 13:06:14;;;;;;;37.50;4.73;;;11.20;7.70;;;;;;5016134;28;20468;-64
2022/01/21 13:08:59;;;;;;;36.40;3.50;;;10.90;8.30;;;;;;5015574;28;20465;-64
2022/01/21 13:11:28;;;;;;;42.00;4.53;;;10.60;9.00;;;;;;5016800;28;20875;-65
2022/01/21 13:14:22;;;;;;;40.13;3.80;;;10.30;9.50;;;;;;5028539;28;20544;-66
2022/01/21 13:16:55;;;;;;;38.07;3.70;;;10.10;10.00;;;;;;5009618;28;20481;-64
2022/01/21 13:19:22;;;;;;;41.17;5.03;;;9.80;11.40;;;;;;5014085;28;20452;-63
2022/01/21 13:21:50;;;;;;;34.73;4.30;;;9.50;11.20;;;;;;5018689;28;20462;-65
2022/01/21 13:24:26;;;;;;;32.90;3.50;;;9.30;11.60;;;;;;5015715;28;20489;-64
2022/01/21 13:26:55;;;;;;;41.50;3.97;;;9.10;12.00;;;;;;5026154;28;20524;-65
2022/01/21 13:29:33;;;;;;;36.57;4.37;;;8.90;12.20;;;;;;5020130;28;20466;-64
2022/01/21 13:32:02;;;;;;;37.13;4.80;;;8.70;12.50;;;;;;5023235;28;21066;-63
2022/01/21 13:34:31;;;;;;;37.33;4.63;;;8.50;12.70;;;;;;5023623;28;20456;-64